Magra, California
Current Conditions -  °F | °C
As of 5:00 AM on Friday 24 Oct 2014 (Local Time) from KGOO Reporting Station
Clear Clear  
Wind Chill: 57°   Ceiling: Unl
Heat Index: 57°   Visibility: 10mi
Dew Point: 39°   Wind: 5mph
Humidity: 51%   Direction: 130°SE
Pressure: 30.03"   Gusts: NA
Location:  39.1673°N, 120.867°W
Report Text: KGOO 241200Z AUTO 13004KT 10SM CLR 14/04 A3003 RMK AO1
Loading
Personal Weather Stations






























Interactive Weather Map New forecast layout! Learn more

10-Day Weather Forecast

Advertisements
Track Severe Weather on mobile